sensor_id;sensor_type;location;lat;lon;timestamp;P1;durP1;ratioP1;P2;durP2;ratioP2
5811;SDS011;2932;52.400;9.558;2022-08-04T00:00:32;6.85;;;2.83;;
5811;SDS011;2932;52.400;9.558;2022-08-04T00:10:55;10.70;;;3.00;;
5811;SDS011;2932;52.400;9.558;2022-08-04T00:13:24;6.22;;;2.90;;
5811;SDS011;2932;52.400;9.558;2022-08-04T00:15:57;5.30;;;3.10;;
5811;SDS011;2932;52.400;9.558;2022-08-04T00:18:34;5.75;;;3.15;;
5811;SDS011;2932;52.400;9.558;2022-08-04T00:21:11;10.73;;;3.90;;
5811;SDS011;2932;52.400;9.558;2022-08-04T00:23:39;9.10;;;4.07;;
5811;SDS011;2932;52.400;9.558;2022-08-04T00:26:07;9.55;;;3.53;;
5811;SDS011;2932;52.400;9.558;2022-08-04T00:28:34;6.63;;;3.20;;
5811;SDS011;2932;52.400;9.558;2022-08-04T00:31:03;10.23;;;3.15;;
5811;SDS011;2932;52.400;9.558;2022-08-04T00:33:29;5.72;;;3.28;;
5811;SDS011;2932;52.400;9.558;2022-08-04T00:35:55;5.35;;;2.70;;
5811;SDS011;2932;52.400;9.558;2022-08-04T00:38:21;8.45;;;3.10;;
5811;SDS011;2932;52.400;9.558;2022-08-04T00:43:33;7.75;;;3.50;;
5811;SDS011;2932;52.400;9.558;2022-08-04T00:51:24;6.72;;;2.92;;
5811;SDS011;2932;52.400;9.558;2022-08-04T00:54:11;7.63;;;3.00;;
5811;SDS011;2932;52.400;9.558;2022-08-04T00:57:02;8.35;;;3.35;;
5811;SDS011;2932;52.400;9.558;2022-08-04T01:05:05;8.88;;;2.72;;
5811;SDS011;2932;52.400;9.558;2022-08-04T01:13:16;7.75;;;2.40;;
5811;SDS011;2932;52.400;9.558;2022-08-04T01:16:16;5.32;;;3.20;;
5811;SDS011;2932;52.400;9.558;2022-08-04T01:22:00;3.60;;;2.50;;
5811;SDS011;2932;52.400;9.558;2022-08-04T01:30:14;6.05;;;3.00;;
5811;SDS011;2932;52.400;9.558;2022-08-04T01:32:43;10.40;;;3.50;;
5811;SDS011;2932;52.400;9.558;2022-08-04T01:35:28;7.22;;;3.17;;
5811;SDS011;2932;52.400;9.558;2022-08-04T01:38:10;6.53;;;2.80;;
5811;SDS011;2932;52.400;9.558;2022-08-04T01:40:38;6.88;;;2.60;;
5811;SDS011;2932;52.400;9.558;2022-08-04T01:43:05;6.82;;;2.90;;
5811;SDS011;2932;52.400;9.558;2022-08-04T01:45:34;7.32;;;3.00;;
5811;SDS011;2932;52.400;9.558;2022-08-04T01:48:01;6.32;;;3.30;;
5811;SDS011;2932;52.400;9.558;2022-08-04T01:50:27;4.93;;;2.80;;
5811;SDS011;2932;52.400;9.558;2022-08-04T01:52:58;6.45;;;3.08;;
5811;SDS011;2932;52.400;9.558;2022-08-04T01:55:26;5.32;;;2.55;;
5811;SDS011;2932;52.400;9.558;2022-08-04T01:57:53;9.02;;;3.00;;
5811;SDS011;2932;52.400;9.558;2022-08-04T02:00:24;8.82;;;2.72;;
5811;SDS011;2932;52.400;9.558;2022-08-04T02:02:51;3.67;;;2.78;;
5811;SDS011;2932;52.400;9.558;2022-08-04T02:05:19;6.28;;;2.80;;
5811;SDS011;2932;52.400;9.558;2022-08-04T02:16:00;7.05;;;2.75;;
5811;SDS011;2932;52.400;9.558;2022-08-04T02:20:58;5.90;;;2.53;;
5811;SDS011;2932;52.400;9.558;2022-08-04T02:23:35;5.30;;;3.13;;
5811;SDS011;2932;52.400;9.558;2022-08-04T02:26:04;6.43;;;2.95;;
5811;SDS011;2932;52.400;9.558;2022-08-04T02:31:42;6.25;;;2.30;;
5811;SDS011;2932;52.400;9.558;2022-08-04T02:36:41;10.45;;;3.33;;
5811;SDS011;2932;52.400;9.558;2022-08-04T02:39:10;5.55;;;2.83;;
5811;SDS011;2932;52.400;9.558;2022-08-04T02:41:37;5.15;;;3.08;;
5811;SDS011;2932;52.400;9.558;2022-08-04T02:44:05;7.10;;;2.85;;
5811;SDS011;2932;52.400;9.558;2022-08-04T02:46:33;4.70;;;2.55;;
5811;SDS011;2932;52.400;9.558;2022-08-04T02:49:06;6.53;;;3.22;;
5811;SDS011;2932;52.400;9.558;2022-08-04T02:51:34;4.40;;;2.63;;
5811;SDS011;2932;52.400;9.558;2022-08-04T02:54:08;7.78;;;3.25;;
5811;SDS011;2932;52.400;9.558;2022-08-04T02:56:35;7.53;;;3.17;;
5811;SDS011;2932;52.400;9.558;2022-08-04T03:01:31;3.10;;;2.80;;
5811;SDS011;2932;52.400;9.558;2022-08-04T03:21:04;5.35;;;3.10;;
5811;SDS011;2932;52.400;9.558;2022-08-04T03:30:04;10.70;;;2.92;;
5811;SDS011;2932;52.400;9.558;2022-08-04T03:46:51;4.55;;;2.50;;
5811;SDS011;2932;52.400;9.558;2022-08-04T03:49:41;5.57;;;3.45;;
5811;SDS011;2932;52.400;9.558;2022-08-04T04:00:39;6.95;;;2.83;;
5811;SDS011;2932;52.400;9.558;2022-08-04T04:11:09;8.43;;;3.00;;
5811;SDS011;2932;52.400;9.558;2022-08-04T04:19:21;9.93;;;2.88;;
5811;SDS011;2932;52.400;9.558;2022-08-04T04:21:46;4.45;;;2.63;;
5811;SDS011;2932;52.400;9.558;2022-08-04T04:30:07;7.50;;;3.10;;
5811;SDS011;2932;52.400;9.558;2022-08-04T04:35:53;6.68;;;3.13;;
5811;SDS011;2932;52.400;9.558;2022-08-04T04:38:57;16.08;;;3.88;;
5811;SDS011;2932;52.400;9.558;2022-08-04T04:59:27;9.68;;;3.60;;
5811;SDS011;2932;52.400;9.558;2022-08-04T05:10:34;6.20;;;3.30;;
5811;SDS011;2932;52.400;9.558;2022-08-04T05:16:04;8.52;;;3.25;;
5811;SDS011;2932;52.400;9.558;2022-08-04T05:18:35;7.20;;;3.40;;
5811;SDS011;2932;52.400;9.558;2022-08-04T05:21:15;8.95;;;3.08;;
5811;SDS011;2932;52.400;9.558;2022-08-04T05:23:47;7.13;;;2.97;;
5811;SDS011;2932;52.400;9.558;2022-08-04T05:26:15;7.47;;;3.00;;
5811;SDS011;2932;52.400;9.558;2022-08-04T05:28:53;6.88;;;3.30;;
5811;SDS011;2932;52.400;9.558;2022-08-04T05:31:25;5.50;;;2.78;;
5811;SDS011;2932;52.400;9.558;2022-08-04T05:36:22;8.38;;;3.05;;
5811;SDS011;2932;52.400;9.558;2022-08-04T05:38:54;7.32;;;3.22;;
5811;SDS011;2932;52.400;9.558;2022-08-04T05:41:23;8.20;;;3.65;;
5811;SDS011;2932;52.400;9.558;2022-08-04T05:43:52;7.72;;;3.20;;
5811;SDS011;2932;52.400;9.558;2022-08-04T05:46:18;6.88;;;3.67;;
5811;SDS011;2932;52.400;9.558;2022-08-04T05:48:44;8.25;;;3.28;;
5811;SDS011;2932;52.400;9.558;2022-08-04T05:51:10;8.80;;;3.60;;
5811;SDS011;2932;52.400;9.558;2022-08-04T05:53:38;6.63;;;3.05;;
5811;SDS011;2932;52.400;9.558;2022-08-04T05:56:08;4.90;;;2.90;;
5811;SDS011;2932;52.400;9.558;2022-08-04T05:58:36;6.93;;;3.15;;
5811;SDS011;2932;52.400;9.558;2022-08-04T06:01:02;5.18;;;3.22;;
5811;SDS011;2932;52.400;9.558;2022-08-04T06:03:30;5.78;;;3.20;;
5811;SDS011;2932;52.400;9.558;2022-08-04T06:05:57;7.25;;;3.33;;
5811;SDS011;2932;52.400;9.558;2022-08-04T06:08:24;8.75;;;3.53;;
5811;SDS011;2932;52.400;9.558;2022-08-04T06:10:49;6.75;;;2.92;;
5811;SDS011;2932;52.400;9.558;2022-08-04T06:13:18;8.80;;;3.08;;
5811;SDS011;2932;52.400;9.558;2022-08-04T06:15:50;6.30;;;3.35;;
5811;SDS011;2932;52.400;9.558;2022-08-04T06:18:19;6.75;;;3.17;;
5811;SDS011;2932;52.400;9.558;2022-08-04T06:20:46;6.05;;;3.30;;
5811;SDS011;2932;52.400;9.558;2022-08-04T06:23:14;9.10;;;3.17;;
5811;SDS011;2932;52.400;9.558;2022-08-04T06:25:44;8.05;;;3.05;;
5811;SDS011;2932;52.400;9.558;2022-08-04T06:28:12;5.30;;;2.85;;
5811;SDS011;2932;52.400;9.558;2022-08-04T06:30:39;5.95;;;2.95;;
5811;SDS011;2932;52.400;9.558;2022-08-04T06:33:06;6.45;;;3.20;;
5811;SDS011;2932;52.400;9.558;2022-08-04T06:35:57;5.28;;;2.47;;
5811;SDS011;2932;52.400;9.558;2022-08-04T06:38:24;7.75;;;3.10;;
5811;SDS011;2932;52.400;9.558;2022-08-04T06:40:52;4.30;;;2.67;;
5811;SDS011;2932;52.400;9.558;2022-08-04T06:43:18;7.82;;;2.80;;
5811;SDS011;2932;52.400;9.558;2022-08-04T06:45:45;7.88;;;2.60;;
5811;SDS011;2932;52.400;9.558;2022-08-04T06:48:13;5.60;;;2.63;;
5811;SDS011;2932;52.400;9.558;2022-08-04T06:50:41;5.55;;;2.38;;
5811;SDS011;2932;52.400;9.558;2022-08-04T06:53:09;5.15;;;2.72;;
5811;SDS011;2932;52.400;9.558;2022-08-04T06:55:35;5.13;;;2.47;;
5811;SDS011;2932;52.400;9.558;2022-08-04T06:58:02;4.47;;;2.15;;
5811;SDS011;2932;52.400;9.558;2022-08-04T07:00:28;4.45;;;2.22;;
5811;SDS011;2932;52.400;9.558;2022-08-04T07:02:55;4.25;;;2.45;;
5811;SDS011;2932;52.400;9.558;2022-08-04T07:05:21;5.22;;;2.28;;
5811;SDS011;2932;52.400;9.558;2022-08-04T07:07:47;3.78;;;2.22;;
5811;SDS011;2932;52.400;9.558;2022-08-04T07:10:14;3.65;;;2.10;;
5811;SDS011;2932;52.400;9.558;2022-08-04T07:12:39;8.20;;;2.20;;
5811;SDS011;2932;52.400;9.558;2022-08-04T07:15:06;2.58;;;2.25;;
5811;SDS011;2932;52.400;9.558;2022-08-04T07:17:35;4.20;;;2.10;;
5811;SDS011;2932;52.400;9.558;2022-08-04T07:20:03;4.75;;;2.15;;
5811;SDS011;2932;52.400;9.558;2022-08-04T07:22:29;4.85;;;2.10;;
5811;SDS011;2932;52.400;9.558;2022-08-04T07:24:56;5.55;;;2.08;;
5811;SDS011;2932;52.400;9.558;2022-08-04T07:27:23;6.75;;;2.25;;
5811;SDS011;2932;52.400;9.558;2022-08-04T07:29:49;5.47;;;1.95;;
5811;SDS011;2932;52.400;9.558;2022-08-04T07:32:15;4.93;;;2.20;;
5811;SDS011;2932;52.400;9.558;2022-08-04T07:34:44;4.30;;;1.70;;
5811;SDS011;2932;52.400;9.558;2022-08-04T07:37:11;3.00;;;1.70;;
5811;SDS011;2932;52.400;9.558;2022-08-04T07:39:36;3.42;;;1.90;;
5811;SDS011;2932;52.400;9.558;2022-08-04T07:42:02;3.67;;;1.83;;
5811;SDS011;2932;52.400;9.558;2022-08-04T07:44:32;3.75;;;1.88;;
5811;SDS011;2932;52.400;9.558;2022-08-04T07:47:02;2.28;;;1.83;;
5811;SDS011;2932;52.400;9.558;2022-08-04T07:49:31;2.20;;;1.90;;
5811;SDS011;2932;52.400;9.558;2022-08-04T07:51:56;2.33;;;2.00;;
5811;SDS011;2932;52.400;9.558;2022-08-04T07:54:23;5.43;;;1.90;;
5811;SDS011;2932;52.400;9.558;2022-08-04T07:56:49;1.95;;;1.70;;
5811;SDS011;2932;52.400;9.558;2022-08-04T07:59:16;5.25;;;1.92;;
5811;SDS011;2932;52.400;9.558;2022-08-04T08:01:42;7.38;;;2.03;;
5811;SDS011;2932;52.400;9.558;2022-08-04T08:04:10;4.50;;;2.00;;
5811;SDS011;2932;52.400;9.558;2022-08-04T08:06:36;4.25;;;1.85;;
5811;SDS011;2932;52.400;9.558;2022-08-04T08:09:08;3.65;;;1.80;;
5811;SDS011;2932;52.400;9.558;2022-08-04T08:11:38;4.65;;;1.80;;
5811;SDS011;2932;52.400;9.558;2022-08-04T08:14:04;4.00;;;1.73;;
5811;SDS011;2932;52.400;9.558;2022-08-04T08:16:32;4.72;;;1.85;;
5811;SDS011;2932;52.400;9.558;2022-08-04T08:18:59;3.90;;;2.20;;
5811;SDS011;2932;52.400;9.558;2022-08-04T08:21:25;2.80;;;1.95;;
5811;SDS011;2932;52.400;9.558;2022-08-04T08:23:50;5.30;;;1.85;;
5811;SDS011;2932;52.400;9.558;2022-08-04T08:26:16;4.90;;;1.70;;
5811;SDS011;2932;52.400;9.558;2022-08-04T08:28:42;1.98;;;1.73;;
5811;SDS011;2932;52.400;9.558;2022-08-04T08:31:08;3.75;;;1.60;;
5811;SDS011;2932;52.400;9.558;2022-08-04T08:33:34;3.22;;;1.90;;
5811;SDS011;2932;52.400;9.558;2022-08-04T08:36:03;2.30;;;1.73;;
5811;SDS011;2932;52.400;9.558;2022-08-04T08:57:49;4.43;;;1.83;;
5811;SDS011;2932;52.400;9.558;2022-08-04T09:00:32;2.47;;;1.75;;
5811;SDS011;2932;52.400;9.558;2022-08-04T09:06:08;5.15;;;1.80;;
5811;SDS011;2932;52.400;9.558;2022-08-04T09:11:42;4.63;;;2.20;;
5811;SDS011;2932;52.400;9.558;2022-08-04T09:19:56;3.40;;;2.05;;
5811;SDS011;2932;52.400;9.558;2022-08-04T09:25:37;2.53;;;1.73;;
5811;SDS011;2932;52.400;9.558;2022-08-04T09:28:09;4.68;;;1.83;;
5811;SDS011;2932;52.400;9.558;2022-08-04T09:30:50;2.63;;;1.50;;
5811;SDS011;2932;52.400;9.558;2022-08-04T09:52:51;2.17;;;1.52;;
5811;SDS011;2932;52.400;9.558;2022-08-04T09:56:12;2.33;;;2.10;;
5811;SDS011;2932;52.400;9.558;2022-08-04T10:01:06;3.28;;;1.65;;
5811;SDS011;2932;52.400;9.558;2022-08-04T10:04:00;1.70;;;1.60;;
5811;SDS011;2932;52.400;9.558;2022-08-04T10:19:55;1.73;;;1.63;;
5811;SDS011;2932;52.400;9.558;2022-08-04T10:22:40;3.33;;;1.60;;
5811;SDS011;2932;52.400;9.558;2022-08-04T10:25:23;1.98;;;1.65;;
5811;SDS011;2932;52.400;9.558;2022-08-04T10:28:27;3.72;;;1.80;;
5811;SDS011;2932;52.400;9.558;2022-08-04T10:30:57;1.52;;;1.42;;
5811;SDS011;2932;52.400;9.558;2022-08-04T10:33:29;4.05;;;1.90;;
5811;SDS011;2932;52.400;9.558;2022-08-04T10:36:05;1.88;;;1.70;;
5811;SDS011;2932;52.400;9.558;2022-08-04T10:44:06;2.65;;;1.60;;
5811;SDS011;2932;52.400;9.558;2022-08-04T10:46:35;1.73;;;1.63;;
5811;SDS011;2932;52.400;9.558;2022-08-04T10:49:09;3.28;;;1.70;;
5811;SDS011;2932;52.400;9.558;2022-08-04T10:52:10;1.23;;;1.23;;
5811;SDS011;2932;52.400;9.558;2022-08-04T10:54:52;1.60;;;1.50;;
5811;SDS011;2932;52.400;9.558;2022-08-04T10:58:08;5.57;;;1.90;;
5811;SDS011;2932;52.400;9.558;2022-08-04T11:00:14;3.15;;;1.70;;
5811;SDS011;2932;52.400;9.558;2022-08-04T11:05:34;2.50;;;1.70;;
5811;SDS011;2932;52.400;9.558;2022-08-04T11:08:02;3.70;;;1.60;;
5811;SDS011;2932;52.400;9.558;2022-08-04T11:10:36;1.83;;;1.73;;
5811;SDS011;2932;52.400;9.558;2022-08-04T11:13:06;3.92;;;1.80;;
5811;SDS011;2932;52.400;9.558;2022-08-04T11:15:37;2.58;;;1.50;;
5811;SDS011;2932;52.400;9.558;2022-08-04T11:18:08;2.33;;;1.70;;
5811;SDS011;2932;52.400;9.558;2022-08-04T11:20:41;1.70;;;1.50;;
5811;SDS011;2932;52.400;9.558;2022-08-04T11:23:14;2.30;;;1.70;;
5811;SDS011;2932;52.400;9.558;2022-08-04T11:31:31;1.65;;;1.55;;
5811;SDS011;2932;52.400;9.558;2022-08-04T11:34:02;2.17;;;1.58;;
5811;SDS011;2932;52.400;9.558;2022-08-04T11:37:35;1.55;;;1.42;;
5811;SDS011;2932;52.400;9.558;2022-08-04T11:39:42;1.70;;;1.60;;
5811;SDS011;2932;52.400;9.558;2022-08-04T11:47:47;3.67;;;1.77;;
5811;SDS011;2932;52.400;9.558;2022-08-04T11:50:28;1.90;;;1.80;;
5811;SDS011;2932;52.400;9.558;2022-08-04T11:52:58;3.30;;;2.08;;
5811;SDS011;2932;52.400;9.558;2022-08-04T11:55:26;2.60;;;1.80;;
5811;SDS011;2932;52.400;9.558;2022-08-04T11:57:53;3.25;;;1.88;;
5811;SDS011;2932;52.400;9.558;2022-08-04T12:00:19;3.30;;;2.00;;
5811;SDS011;2932;52.400;9.558;2022-08-04T12:05:29;2.92;;;1.50;;
5811;SDS011;2932;52.400;9.558;2022-08-04T12:10:25;1.60;;;1.50;;
5811;SDS011;2932;52.400;9.558;2022-08-04T12:13:19;1.80;;;1.50;;
5811;SDS011;2932;52.400;9.558;2022-08-04T12:18:55;4.35;;;1.50;;
5811;SDS011;2932;52.400;9.558;2022-08-04T12:21:25;3.75;;;1.60;;
5811;SDS011;2932;52.400;9.558;2022-08-04T12:24:04;2.50;;;1.40;;
5811;SDS011;2932;52.400;9.558;2022-08-04T12:26:40;4.35;;;1.58;;
5811;SDS011;2932;52.400;9.558;2022-08-04T12:29:08;1.90;;;1.45;;
5811;SDS011;2932;52.400;9.558;2022-08-04T12:34:24;1.80;;;1.65;;
5811;SDS011;2932;52.400;9.558;2022-08-04T12:39:26;4.55;;;1.55;;
5811;SDS011;2932;52.400;9.558;2022-08-04T12:44:47;5.30;;;1.50;;
5811;SDS011;2932;52.400;9.558;2022-08-04T12:47:20;1.50;;;1.40;;
5811;SDS011;2932;52.400;9.558;2022-08-04T12:49:47;1.42;;;1.27;;
5811;SDS011;2932;52.400;9.558;2022-08-04T12:52:14;3.53;;;1.63;;
5811;SDS011;2932;52.400;9.558;2022-08-04T12:54:42;1.52;;;1.38;;
5811;SDS011;2932;52.400;9.558;2022-08-04T12:57:11;1.55;;;1.45;;
5811;SDS011;2932;52.400;9.558;2022-08-04T12:59:42;1.30;;;1.20;;
5811;SDS011;2932;52.400;9.558;2022-08-04T13:02:27;2.92;;;1.73;;
5811;SDS011;2932;52.400;9.558;2022-08-04T13:04:57;1.77;;;1.52;;
5811;SDS011;2932;52.400;9.558;2022-08-04T13:07:27;2.30;;;1.30;;
5811;SDS011;2932;52.400;9.558;2022-08-04T13:09:59;2.80;;;1.83;;
5811;SDS011;2932;52.400;9.558;2022-08-04T13:12:29;1.90;;;1.25;;
5811;SDS011;2932;52.400;9.558;2022-08-04T13:14:58;1.50;;;1.40;;
5811;SDS011;2932;52.400;9.558;2022-08-04T13:17:42;3.40;;;1.45;;
5811;SDS011;2932;52.400;9.558;2022-08-04T13:20:13;2.20;;;1.45;;
5811;SDS011;2932;52.400;9.558;2022-08-04T13:22:39;1.45;;;1.20;;
5811;SDS011;2932;52.400;9.558;2022-08-04T13:25:05;1.20;;;1.10;;
5811;SDS011;2932;52.400;9.558;2022-08-04T13:27:31;4.85;;;1.20;;
5811;SDS011;2932;52.400;9.558;2022-08-04T13:30:02;2.45;;;1.50;;
5811;SDS011;2932;52.400;9.558;2022-08-04T13:32:28;3.35;;;1.30;;
5811;SDS011;2932;52.400;9.558;2022-08-04T13:34:55;1.83;;;1.00;;
5811;SDS011;2932;52.400;9.558;2022-08-04T13:37:24;1.40;;;1.30;;
5811;SDS011;2932;52.400;9.558;2022-08-04T13:39:54;2.03;;;1.20;;
5811;SDS011;2932;52.400;9.558;2022-08-04T13:42:24;1.00;;;1.00;;
5811;SDS011;2932;52.400;9.558;2022-08-04T13:44:52;2.60;;;1.10;;
5811;SDS011;2932;52.400;9.558;2022-08-04T13:47:30;2.13;;;1.45;;
5811;SDS011;2932;52.400;9.558;2022-08-04T13:52:40;1.50;;;1.40;;
5811;SDS011;2932;52.400;9.558;2022-08-04T13:55:07;2.55;;;1.23;;
5811;SDS011;2932;52.400;9.558;2022-08-04T13:57:43;1.70;;;1.30;;
5811;SDS011;2932;52.400;9.558;2022-08-04T14:00:11;2.15;;;1.02;;
5811;SDS011;2932;52.400;9.558;2022-08-04T14:03:20;2.25;;;1.20;;
5811;SDS011;2932;52.400;9.558;2022-08-04T14:05:28;1.80;;;1.30;;
5811;SDS011;2932;52.400;9.558;2022-08-04T14:10:25;2.05;;;1.48;;
5811;SDS011;2932;52.400;9.558;2022-08-04T14:12:51;4.57;;;1.00;;
5811;SDS011;2932;52.400;9.558;2022-08-04T14:23:25;2.53;;;1.20;;
5811;SDS011;2932;52.400;9.558;2022-08-04T14:25:52;3.90;;;1.40;;
5811;SDS011;2932;52.400;9.558;2022-08-04T14:28:27;2.92;;;1.35;;
5811;SDS011;2932;52.400;9.558;2022-08-04T14:31:11;5.15;;;1.50;;
5811;SDS011;2932;52.400;9.558;2022-08-04T14:33:47;3.15;;;1.48;;
5811;SDS011;2932;52.400;9.558;2022-08-04T14:36:15;1.17;;;1.13;;
5811;SDS011;2932;52.400;9.558;2022-08-04T14:41:09;2.58;;;1.30;;
5811;SDS011;2932;52.400;9.558;2022-08-04T14:43:44;4.10;;;1.60;;
5811;SDS011;2932;52.400;9.558;2022-08-04T14:46:12;2.33;;;1.40;;
5811;SDS011;2932;52.400;9.558;2022-08-04T14:48:38;1.50;;;1.30;;
5811;SDS011;2932;52.400;9.558;2022-08-04T14:51:22;1.30;;;1.20;;
5811;SDS011;2932;52.400;9.558;2022-08-04T14:53:48;2.65;;;1.50;;
5811;SDS011;2932;52.400;9.558;2022-08-04T14:56:13;2.00;;;1.30;;
5811;SDS011;2932;52.400;9.558;2022-08-04T14:58:39;1.88;;;1.20;;
5811;SDS011;2932;52.400;9.558;2022-08-04T15:01:05;1.40;;;1.20;;
5811;SDS011;2932;52.400;9.558;2022-08-04T15:03:33;2.95;;;1.25;;
5811;SDS011;2932;52.400;9.558;2022-08-04T15:06:01;2.78;;;1.60;;
5811;SDS011;2932;52.400;9.558;2022-08-04T15:08:28;1.85;;;1.20;;
5811;SDS011;2932;52.400;9.558;2022-08-04T15:10:54;4.35;;;1.50;;
5811;SDS011;2932;52.400;9.558;2022-08-04T15:13:22;2.92;;;1.70;;
5811;SDS011;2932;52.400;9.558;2022-08-04T15:15:48;4.63;;;2.00;;
5811;SDS011;2932;52.400;9.558;2022-08-04T15:18:13;2.30;;;2.00;;
5811;SDS011;2932;52.400;9.558;2022-08-04T15:20:39;2.75;;;1.88;;
5811;SDS011;2932;52.400;9.558;2022-08-04T15:23:06;4.22;;;2.35;;
5811;SDS011;2932;52.400;9.558;2022-08-04T15:25:36;6.32;;;2.33;;
5811;SDS011;2932;52.400;9.558;2022-08-04T15:28:04;8.02;;;1.90;;
5811;SDS011;2932;52.400;9.558;2022-08-04T15:30:36;7.72;;;2.30;;
5811;SDS011;2932;52.400;9.558;2022-08-04T15:33:02;5.00;;;2.10;;
5811;SDS011;2932;52.400;9.558;2022-08-04T15:35:29;11.73;;;2.50;;
5811;SDS011;2932;52.400;9.558;2022-08-04T15:45:46;7.50;;;2.03;;
5811;SDS011;2932;52.400;9.558;2022-08-04T15:53:22;10.45;;;1.85;;
5811;SDS011;2932;52.400;9.558;2022-08-04T15:55:55;6.65;;;1.75;;
5811;SDS011;2932;52.400;9.558;2022-08-04T15:58:21;4.22;;;1.38;;
5811;SDS011;2932;52.400;9.558;2022-08-04T16:08:24;5.72;;;1.60;;
5811;SDS011;2932;52.400;9.558;2022-08-04T16:10:50;1.92;;;1.40;;
5811;SDS011;2932;52.400;9.558;2022-08-04T16:13:17;2.72;;;1.40;;
5811;SDS011;2932;52.400;9.558;2022-08-04T16:15:54;1.83;;;1.30;;
5811;SDS011;2932;52.400;9.558;2022-08-04T16:20:49;3.90;;;1.40;;
5811;SDS011;2932;52.400;9.558;2022-08-04T16:23:26;2.80;;;1.30;;
5811;SDS011;2932;52.400;9.558;2022-08-04T16:25:55;2.17;;;1.30;;
5811;SDS011;2932;52.400;9.558;2022-08-04T16:31:15;3.45;;;1.50;;
5811;SDS011;2932;52.400;9.558;2022-08-04T16:33:41;1.33;;;1.13;;
5811;SDS011;2932;52.400;9.558;2022-08-04T16:36:11;5.30;;;1.60;;
5811;SDS011;2932;52.400;9.558;2022-08-04T16:41:41;3.28;;;1.67;;
5811;SDS011;2932;52.400;9.558;2022-08-04T16:46:57;1.65;;;1.45;;
5811;SDS011;2932;52.400;9.558;2022-08-04T16:49:24;2.97;;;1.80;;
5811;SDS011;2932;52.400;9.558;2022-08-04T16:51:51;7.10;;;3.25;;
5811;SDS011;2932;52.400;9.558;2022-08-04T16:54:17;5.70;;;3.30;;
5811;SDS011;2932;52.400;9.558;2022-08-04T16:56:42;3.60;;;2.78;;
5811;SDS011;2932;52.400;9.558;2022-08-04T16:59:09;5.25;;;3.47;;
5811;SDS011;2932;52.400;9.558;2022-08-04T17:01:37;4.43;;;2.90;;
5811;SDS011;2932;52.400;9.558;2022-08-04T17:04:11;11.52;;;5.35;;
5811;SDS011;2932;52.400;9.558;2022-08-04T17:06:37;7.05;;;4.18;;
5811;SDS011;2932;52.400;9.558;2022-08-04T17:09:11;7.32;;;4.78;;
5811;SDS011;2932;52.400;9.558;2022-08-04T17:11:40;7.60;;;4.70;;
5811;SDS011;2932;52.400;9.558;2022-08-04T17:14:07;4.63;;;3.40;;
5811;SDS011;2932;52.400;9.558;2022-08-04T17:16:36;3.42;;;2.30;;
5811;SDS011;2932;52.400;9.558;2022-08-04T17:19:04;4.78;;;2.95;;
5811;SDS011;2932;52.400;9.558;2022-08-04T17:21:32;6.88;;;4.32;;
5811;SDS011;2932;52.400;9.558;2022-08-04T17:24:00;6.82;;;4.28;;
5811;SDS011;2932;52.400;9.558;2022-08-04T17:26:27;7.53;;;3.80;;
5811;SDS011;2932;52.400;9.558;2022-08-04T17:28:55;4.15;;;2.25;;
5811;SDS011;2932;52.400;9.558;2022-08-04T17:31:22;5.13;;;1.70;;
5811;SDS011;2932;52.400;9.558;2022-08-04T17:33:50;3.55;;;1.90;;
5811;SDS011;2932;52.400;9.558;2022-08-04T17:36:17;3.88;;;2.38;;
5811;SDS011;2932;52.400;9.558;2022-08-04T17:38:52;3.88;;;1.80;;
5811;SDS011;2932;52.400;9.558;2022-08-04T17:41:22;4.03;;;2.15;;
5811;SDS011;2932;52.400;9.558;2022-08-04T17:48:44;7.00;;;2.53;;
5811;SDS011;2932;52.400;9.558;2022-08-04T17:51:20;6.38;;;3.47;;
5811;SDS011;2932;52.400;9.558;2022-08-04T17:53:58;7.28;;;3.72;;
5811;SDS011;2932;52.400;9.558;2022-08-04T18:01:47;4.07;;;2.15;;
5811;SDS011;2932;52.400;9.558;2022-08-04T18:04:22;4.88;;;2.03;;
5811;SDS011;2932;52.400;9.558;2022-08-04T18:09:47;6.18;;;2.08;;
5811;SDS011;2932;52.400;9.558;2022-08-04T18:14:55;2.40;;;2.05;;
5811;SDS011;2932;52.400;9.558;2022-08-04T18:17:55;6.07;;;2.50;;
5811;SDS011;2932;52.400;9.558;2022-08-04T18:20:15;5.30;;;2.05;;
5811;SDS011;2932;52.400;9.558;2022-08-04T18:22:44;7.88;;;4.70;;
5811;SDS011;2932;52.400;9.558;2022-08-04T18:25:11;11.98;;;7.15;;
5811;SDS011;2932;52.400;9.558;2022-08-04T18:27:47;19.20;;;10.52;;
5811;SDS011;2932;52.400;9.558;2022-08-04T18:30:14;11.48;;;6.18;;
5811;SDS011;2932;52.400;9.558;2022-08-04T18:32:40;8.18;;;4.20;;
5811;SDS011;2932;52.400;9.558;2022-08-04T18:35:06;5.25;;;3.00;;
5811;SDS011;2932;52.400;9.558;2022-08-04T18:37:32;5.03;;;2.00;;
5811;SDS011;2932;52.400;9.558;2022-08-04T18:39:58;4.90;;;2.00;;
5811;SDS011;2932;52.400;9.558;2022-08-04T18:42:24;3.00;;;2.20;;
5811;SDS011;2932;52.400;9.558;2022-08-04T18:44:51;5.38;;;2.50;;
5811;SDS011;2932;52.400;9.558;2022-08-04T18:47:19;4.55;;;2.03;;
5811;SDS011;2932;52.400;9.558;2022-08-04T18:49:45;5.55;;;2.70;;
5811;SDS011;2932;52.400;9.558;2022-08-04T18:52:11;5.43;;;2.22;;
5811;SDS011;2932;52.400;9.558;2022-08-04T18:54:37;3.25;;;1.92;;
5811;SDS011;2932;52.400;9.558;2022-08-04T18:57:02;4.65;;;2.20;;
5811;SDS011;2932;52.400;9.558;2022-08-04T18:59:27;5.72;;;2.30;;
5811;SDS011;2932;52.400;9.558;2022-08-04T19:01:53;7.60;;;2.03;;
5811;SDS011;2932;52.400;9.558;2022-08-04T19:04:19;4.50;;;2.38;;
5811;SDS011;2932;52.400;9.558;2022-08-04T19:06:44;4.85;;;2.20;;
5811;SDS011;2932;52.400;9.558;2022-08-04T19:09:09;2.88;;;2.35;;
5811;SDS011;2932;52.400;9.558;2022-08-04T19:11:35;5.15;;;2.55;;
5811;SDS011;2932;52.400;9.558;2022-08-04T19:14:02;4.50;;;2.20;;
5811;SDS011;2932;52.400;9.558;2022-08-04T19:16:28;4.63;;;2.80;;
5811;SDS011;2932;52.400;9.558;2022-08-04T19:18:55;4.50;;;2.83;;
5811;SDS011;2932;52.400;9.558;2022-08-04T19:21:22;2.80;;;2.22;;
5811;SDS011;2932;52.400;9.558;2022-08-04T19:23:48;5.13;;;2.70;;
5811;SDS011;2932;52.400;9.558;2022-08-04T19:26:13;5.10;;;2.65;;
5811;SDS011;2932;52.400;9.558;2022-08-04T19:28:38;4.72;;;2.40;;
5811;SDS011;2932;52.400;9.558;2022-08-04T19:31:05;4.30;;;2.58;;
5811;SDS011;2932;52.400;9.558;2022-08-04T19:33:32;4.57;;;2.45;;
5811;SDS011;2932;52.400;9.558;2022-08-04T19:35:58;4.50;;;2.00;;
5811;SDS011;2932;52.400;9.558;2022-08-04T19:38:23;5.90;;;2.15;;
5811;SDS011;2932;52.400;9.558;2022-08-04T19:40:49;3.28;;;2.33;;
5811;SDS011;2932;52.400;9.558;2022-08-04T19:43:14;4.78;;;2.13;;
5811;SDS011;2932;52.400;9.558;2022-08-04T19:45:39;3.15;;;2.20;;
5811;SDS011;2932;52.400;9.558;2022-08-04T19:48:05;3.65;;;2.30;;
5811;SDS011;2932;52.400;9.558;2022-08-04T19:50:31;4.60;;;2.35;;
5811;SDS011;2932;52.400;9.558;2022-08-04T19:52:57;3.95;;;2.10;;
5811;SDS011;2932;52.400;9.558;2022-08-04T19:55:23;4.57;;;2.17;;
5811;SDS011;2932;52.400;9.558;2022-08-04T19:57:51;5.63;;;2.15;;
5811;SDS011;2932;52.400;9.558;2022-08-04T20:00:17;6.32;;;2.08;;
5811;SDS011;2932;52.400;9.558;2022-08-04T20:02:44;3.15;;;1.58;;
5811;SDS011;2932;52.400;9.558;2022-08-04T20:05:11;2.60;;;1.77;;
5811;SDS011;2932;52.400;9.558;2022-08-04T20:07:38;4.28;;;2.05;;
5811;SDS011;2932;52.400;9.558;2022-08-04T20:10:03;4.82;;;2.30;;
5811;SDS011;2932;52.400;9.558;2022-08-04T20:12:31;5.00;;;2.28;;
5811;SDS011;2932;52.400;9.558;2022-08-04T20:14:57;3.45;;;1.90;;
5811;SDS011;2932;52.400;9.558;2022-08-04T20:17:22;6.68;;;2.08;;
5811;SDS011;2932;52.400;9.558;2022-08-04T20:19:49;5.47;;;2.33;;
5811;SDS011;2932;52.400;9.558;2022-08-04T20:22:14;6.03;;;2.20;;
5811;SDS011;2932;52.400;9.558;2022-08-04T20:24:43;6.45;;;2.03;;
5811;SDS011;2932;52.400;9.558;2022-08-04T20:27:12;4.18;;;2.30;;
5811;SDS011;2932;52.400;9.558;2022-08-04T20:29:38;2.95;;;1.70;;
5811;SDS011;2932;52.400;9.558;2022-08-04T20:32:03;4.03;;;1.98;;
5811;SDS011;2932;52.400;9.558;2022-08-04T20:34:29;4.10;;;1.95;;
5811;SDS011;2932;52.400;9.558;2022-08-04T20:36:54;3.83;;;2.05;;
5811;SDS011;2932;52.400;9.558;2022-08-04T20:39:19;2.88;;;1.90;;
5811;SDS011;2932;52.400;9.558;2022-08-04T20:41:46;5.13;;;2.20;;
5811;SDS011;2932;52.400;9.558;2022-08-04T20:44:12;7.90;;;2.30;;
5811;SDS011;2932;52.400;9.558;2022-08-04T20:46:37;6.45;;;2.00;;
5811;SDS011;2932;52.400;9.558;2022-08-04T20:49:03;4.53;;;1.50;;
5811;SDS011;2932;52.400;9.558;2022-08-04T20:51:28;3.55;;;1.60;;
5811;SDS011;2932;52.400;9.558;2022-08-04T20:53:54;5.28;;;1.77;;
5811;SDS011;2932;52.400;9.558;2022-08-04T20:56:19;4.70;;;1.77;;